To NAV CANADA Home Page Login to a new session Search on AWWS site Feedback and Comments Disclaimer Vers la page française équivalente Tips FAQ What's new on the site To the Forecasts and Observations / NOTAM section To "File a Flight Plan" website Publications and other links Update of the User's profile FIC Telephone Numbers My Weather Data Folder Route Weather Data Regional Weather Data Local Weather Data To the Forecasts and Observations / NOTAM section
Request Generated 04/20/2014 at 18:33:23 UTC . Weather information available at that time is displayed.

METAR/TAF

SCHEFFERVILLE/QC    (show WxCam)

METAR CYKL 201800Z AUTO 29012G18KT 9SM CLR M02/M16 A3015 RMK SLP250=
METAR CYKL 201700Z AUTO 30015KT 9SM CLR M03/M17 A3016 RMK SLP255=
METAR CYKL 201600Z AUTO 30016KT 9SM CLR M04/M17 A3018 RMK MAX WND
30017KT AT 1535Z SLP262=

TAF CYKL 201340Z 2014/2102 31012G22KT P6SM SKC
BECMG 2022/2024 24008KT
RMK FCST BASED ON AUTO OBS. NXT FCST BY 202000Z=
Your time UTC time
Weather data provided by Environment Canada and NAV CANADA